SAS2820 LGSA-EKCH
Flight info
| Callsign | SAS2820 |
|---|---|
| Flight time | 3h 36m |
| Altitude | 38000 |
| Route | SOKRI UY151 DDM/N0448F390 DCT BAMOS DCT PEREN/N0448F380 DCT ATFIR DCT LOMOS DCT MEGIK DCT KELEL DCT BAREX DCT OLNED DCT AMROR DCT ROE M743 TIDVU |
| Aircraft | A20N/M-SDE3FGIJ1RWXY/ALB1 |
Departure
| Time | 2026-04-26 12:41 |
|---|---|
| Airport | Chania International Airport (LGSA) |
Arrival
| Time | 2026-04-26 16:17 |
|---|---|
| Airport | Copenhagen Kastrup Airport (EKCH) |
| Time | Latitude | Longitude | Altitude | Speed | Heading |
|---|---|---|---|---|---|
| 2026-04-26 12:25 | 35.53875 | 24.14062 | 492 ft | 0 kts | 22° |
| 2026-04-26 12:32 | 35.53873 | 24.14061 | 491 ft | 2 kts | 22° |
| 2026-04-26 12:32 | 35.53849 | 24.14048 | 487 ft | 4 kts | 26° |
| 2026-04-26 12:32 | 35.53805 | 24.14012 | 491 ft | 4 kts | 59° |
| 2026-04-26 12:33 | 35.53800 | 24.13990 | 491 ft | 1 kts | 111° |
| 2026-04-26 12:33 | 35.53802 | 24.13985 | 492 ft | 0 kts | 111° |
| 2026-04-26 12:35 | 35.53801 | 24.13989 | 491 ft | 2 kts | 111° |
| 2026-04-26 12:35 | 35.53786 | 24.14033 | 492 ft | 10 kts | 111° |
| 2026-04-26 12:35 | 35.53751 | 24.14141 | 491 ft | 16 kts | 111° |
| 2026-04-26 12:36 | 35.53705 | 24.14285 | 490 ft | 20 kts | 112° |
| 2026-04-26 12:36 | 35.53637 | 24.14358 | 491 ft | 14 kts | 191° |
| 2026-04-26 12:36 | 35.53554 | 24.14344 | 493 ft | 6 kts | 131° |
| 2026-04-26 12:36 | 35.53541 | 24.14392 | 493 ft | 9 kts | 109° |
| 2026-04-26 12:37 | 35.53505 | 24.14514 | 490 ft | 21 kts | 110° |
| 2026-04-26 12:37 | 35.53447 | 24.14695 | 493 ft | 24 kts | 112° |
| 2026-04-26 12:37 | 35.53381 | 24.14898 | 494 ft | 27 kts | 112° |
| 2026-04-26 12:37 | 35.53311 | 24.15112 | 493 ft | 28 kts | 111° |
| 2026-04-26 12:38 | 35.53242 | 24.15321 | 490 ft | 25 kts | 111° |
| 2026-04-26 12:38 | 35.53177 | 24.15524 | 495 ft | 26 kts | 112° |
| 2026-04-26 12:38 | 35.53108 | 24.15735 | 497 ft | 27 kts | 111° |
| 2026-04-26 12:38 | 35.53039 | 24.15946 | 493 ft | 27 kts | 112° |
| 2026-04-26 12:39 | 35.52972 | 24.16154 | 490 ft | 25 kts | 111° |
| 2026-04-26 12:39 | 35.52905 | 24.16360 | 496 ft | 27 kts | 111° |
| 2026-04-26 12:39 | 35.52835 | 24.16572 | 495 ft | 26 kts | 112° |
| 2026-04-26 12:39 | 35.52797 | 24.16689 | 492 ft | 1 kts | 111° |
| 2026-04-26 12:40 | 35.52777 | 24.16752 | 495 ft | 16 kts | 112° |
| 2026-04-26 12:40 | 35.52710 | 24.16872 | 498 ft | 17 kts | 181° |
| 2026-04-26 12:40 | 35.52602 | 24.16818 | 493 ft | 17 kts | 225° |
| 2026-04-26 12:40 | 35.52615 | 24.16681 | 489 ft | 18 kts | 292° |
| 2026-04-26 12:41 | 35.52710 | 24.16392 | 499 ft | 68 kts | 291° |
| 2026-04-26 12:41 | 35.52965 | 24.15607 | 487 ft | 127 kts | 291° |
| 2026-04-26 12:41 | 35.53325 | 24.14464 | 739 ft | 148 kts | 290° |
| 2026-04-26 12:41 | 35.53664 | 24.13277 | 1338 ft | 147 kts | 291° |
| 2026-04-26 12:42 | 35.54017 | 24.12073 | 1903 ft | 153 kts | 293° |
| 2026-04-26 12:42 | 35.54410 | 24.10794 | 2342 ft | 170 kts | 294° |
| 2026-04-26 12:42 | 35.54897 | 24.09363 | 2669 ft | 192 kts | 303° |
| 2026-04-26 12:42 | 35.55913 | 24.08213 | 3045 ft | 212 kts | 332° |
| 2026-04-26 12:43 | 35.57302 | 24.07377 | 3588 ft | 232 kts | 338° |
| 2026-04-26 12:43 | 35.58855 | 24.06570 | 4178 ft | 251 kts | 339° |
| 2026-04-26 12:43 | 35.60478 | 24.05724 | 5068 ft | 255 kts | 338° |
| 2026-04-26 12:43 | 35.62113 | 24.04838 | 5984 ft | 259 kts | 338° |
| 2026-04-26 12:44 | 35.63775 | 24.03911 | 6855 ft | 264 kts | 338° |
| 2026-04-26 12:44 | 35.65462 | 24.02954 | 7690 ft | 270 kts | 337° |
| 2026-04-26 12:44 | 35.67181 | 24.01972 | 8538 ft | 275 kts | 337° |
| 2026-04-26 12:44 | 35.68933 | 24.00969 | 9386 ft | 280 kts | 337° |
| 2026-04-26 12:45 | 35.70717 | 23.99947 | 10211 ft | 285 kts | 337° |
| 2026-04-26 12:45 | 35.72572 | 23.98886 | 10666 ft | 305 kts | 337° |
| 2026-04-26 12:45 | 35.74564 | 23.97749 | 10960 ft | 326 kts | 337° |
| 2026-04-26 12:45 | 35.76653 | 23.96553 | 11604 ft | 333 kts | 336° |
| 2026-04-26 12:46 | 35.78762 | 23.95342 | 12479 ft | 335 kts | 336° |
| 2026-04-26 12:46 | 35.80882 | 23.94124 | 13299 ft | 338 kts | 336° |
| 2026-04-26 12:46 | 35.83020 | 23.92896 | 14083 ft | 341 kts | 336° |
| 2026-04-26 12:46 | 35.85177 | 23.91657 | 14795 ft | 344 kts | 337° |
| 2026-04-26 12:47 | 35.87351 | 23.90408 | 15511 ft | 346 kts | 337° |
| 2026-04-26 12:47 | 35.89543 | 23.89147 | 16210 ft | 349 kts | 337° |
| 2026-04-26 12:47 | 35.91756 | 23.87874 | 16885 ft | 352 kts | 337° |
| 2026-04-26 12:47 | 35.93987 | 23.86590 | 17579 ft | 356 kts | 337° |
| 2026-04-26 12:48 | 35.96237 | 23.85293 | 18249 ft | 359 kts | 337° |
| 2026-04-26 12:48 | 35.98509 | 23.83984 | 18841 ft | 362 kts | 337° |
| 2026-04-26 12:48 | 36.00768 | 23.82681 | 19437 ft | 364 kts | 337° |
| 2026-04-26 12:48 | 36.03070 | 23.81353 | 20018 ft | 367 kts | 337° |
| 2026-04-26 12:49 | 36.05389 | 23.80014 | 20602 ft | 369 kts | 337° |
| 2026-04-26 12:49 | 36.07724 | 23.78665 | 21187 ft | 372 kts | 337° |
| 2026-04-26 12:49 | 36.10076 | 23.77306 | 21748 ft | 375 kts | 337° |
| 2026-04-26 12:49 | 36.12446 | 23.75935 | 22315 ft | 378 kts | 337° |
| 2026-04-26 12:50 | 36.14837 | 23.74551 | 22845 ft | 381 kts | 337° |
| 2026-04-26 12:50 | 36.17250 | 23.73155 | 23347 ft | 385 kts | 337° |
| 2026-04-26 12:50 | 36.19682 | 23.71745 | 23855 ft | 387 kts | 337° |
| 2026-04-26 12:50 | 36.22128 | 23.70326 | 24329 ft | 389 kts | 337° |
| 2026-04-26 12:51 | 36.24594 | 23.68894 | 24726 ft | 393 kts | 337° |
| 2026-04-26 12:51 | 36.27080 | 23.67450 | 25192 ft | 395 kts | 337° |
| 2026-04-26 12:51 | 36.29573 | 23.66000 | 25641 ft | 397 kts | 337° |
| 2026-04-26 12:51 | 36.32081 | 23.64542 | 26073 ft | 399 kts | 337° |
| 2026-04-26 12:52 | 36.34602 | 23.63074 | 26490 ft | 402 kts | 337° |
| 2026-04-26 12:52 | 36.37138 | 23.61598 | 26906 ft | 404 kts | 337° |
| 2026-04-26 12:52 | 36.39691 | 23.60110 | 27312 ft | 406 kts | 337° |
| 2026-04-26 12:52 | 36.42253 | 23.58615 | 27706 ft | 408 kts | 337° |
| 2026-04-26 12:53 | 36.44828 | 23.57112 | 28089 ft | 410 kts | 337° |
| 2026-04-26 12:53 | 36.47416 | 23.55600 | 28460 ft | 412 kts | 337° |
| 2026-04-26 12:53 | 36.50019 | 23.54080 | 28770 ft | 415 kts | 337° |
| 2026-04-26 12:53 | 36.52640 | 23.52546 | 29116 ft | 417 kts | 337° |
| 2026-04-26 12:54 | 36.55276 | 23.51003 | 29468 ft | 419 kts | 337° |
| 2026-04-26 12:54 | 36.57919 | 23.49454 | 29815 ft | 421 kts | 337° |
| 2026-04-26 12:54 | 36.60575 | 23.47896 | 30142 ft | 423 kts | 337° |
| 2026-04-26 12:54 | 36.63243 | 23.46331 | 30415 ft | 425 kts | 337° |
| 2026-04-26 12:55 | 36.65924 | 23.44756 | 30675 ft | 427 kts | 337° |
| 2026-04-26 12:55 | 36.68618 | 23.43173 | 30953 ft | 429 kts | 337° |
| 2026-04-26 12:55 | 36.71328 | 23.41579 | 31171 ft | 433 kts | 336° |
| 2026-04-26 12:55 | 36.74053 | 23.39975 | 31472 ft | 433 kts | 336° |
| 2026-04-26 12:56 | 36.76783 | 23.38367 | 31821 ft | 433 kts | 336° |
| 2026-04-26 12:56 | 36.79529 | 23.36832 | 32176 ft | 432 kts | 340° |
| 2026-04-26 12:56 | 36.82373 | 23.35658 | 32531 ft | 430 kts | 346° |
| 2026-04-26 12:56 | 36.85291 | 23.34867 | 32864 ft | 429 kts | 352° |
| 2026-04-26 12:57 | 36.88234 | 23.34270 | 33200 ft | 428 kts | 351° |
| 2026-04-26 12:57 | 36.91175 | 23.33653 | 33537 ft | 428 kts | 351° |
| 2026-04-26 12:57 | 36.94107 | 23.33033 | 33857 ft | 427 kts | 351° |
| 2026-04-26 12:58 | 36.99963 | 23.31799 | 34385 ft | 427 kts | 351° |
| 2026-04-26 12:58 | 37.02894 | 23.31185 | 34619 ft | 427 kts | 351° |
| 2026-04-26 12:58 | 37.05821 | 23.30571 | 34874 ft | 426 kts | 351° |
| 2026-04-26 12:58 | 37.08750 | 23.29957 | 35123 ft | 426 kts | 351° |
| 2026-04-26 12:59 | 37.11671 | 23.29345 | 35363 ft | 426 kts | 351° |
| 2026-04-26 12:59 | 37.14589 | 23.28735 | 35589 ft | 425 kts | 351° |
| 2026-04-26 12:59 | 37.17505 | 23.28129 | 35813 ft | 425 kts | 350° |
| 2026-04-26 12:59 | 37.20378 | 23.27525 | 36027 ft | 424 kts | 350° |
| 2026-04-26 13:00 | 37.23292 | 23.26911 | 36203 ft | 425 kts | 350° |
| 2026-04-26 13:00 | 37.26206 | 23.26297 | 36411 ft | 425 kts | 350° |
| 2026-04-26 13:00 | 37.29117 | 23.25683 | 36611 ft | 424 kts | 350° |
| 2026-04-26 13:00 | 37.32025 | 23.25068 | 36803 ft | 424 kts | 349° |
| 2026-04-26 13:01 | 37.34926 | 23.24454 | 36987 ft | 424 kts | 349° |
| 2026-04-26 13:01 | 37.37837 | 23.23837 | 37170 ft | 423 kts | 349° |
| 2026-04-26 13:01 | 37.40745 | 23.23220 | 37348 ft | 423 kts | 349° |
| 2026-04-26 13:01 | 37.43646 | 23.22611 | 37520 ft | 423 kts | 351° |
| 2026-04-26 13:02 | 37.46575 | 23.22247 | 37674 ft | 424 kts | 356° |
| 2026-04-26 13:02 | 37.49527 | 23.22250 | 37798 ft | 425 kts | 1° |
| 2026-04-26 13:02 | 37.52473 | 23.22606 | 37943 ft | 426 kts | 6° |
| 2026-04-26 13:02 | 37.55411 | 23.23166 | 38008 ft | 427 kts | 6° |
| 2026-04-26 13:03 | 37.61274 | 23.24236 | 38007 ft | 425 kts | 6° |
| 2026-04-26 13:03 | 37.67133 | 23.25310 | 38008 ft | 426 kts | 6° |
| 2026-04-26 13:04 | 37.72997 | 23.26396 | 38005 ft | 426 kts | 6° |
| 2026-04-26 13:04 | 37.78857 | 23.27486 | 38001 ft | 426 kts | 6° |
| 2026-04-26 13:05 | 37.84719 | 23.28577 | 37998 ft | 426 kts | 6° |
| 2026-04-26 13:05 | 37.90583 | 23.29671 | 38000 ft | 426 kts | 6° |
| 2026-04-26 13:06 | 37.96414 | 23.30760 | 37999 ft | 426 kts | 6° |
| 2026-04-26 13:06 | 38.02321 | 23.31865 | 38002 ft | 426 kts | 6° |
| 2026-04-26 13:07 | 38.08192 | 23.32965 | 38011 ft | 427 kts | 6° |
| 2026-04-26 13:07 | 38.14034 | 23.34060 | 38011 ft | 427 kts | 6° |
| 2026-04-26 13:08 | 38.19919 | 23.35167 | 38013 ft | 428 kts | 6° |
| 2026-04-26 13:08 | 38.25811 | 23.36277 | 38011 ft | 428 kts | 6° |
| 2026-04-26 13:09 | 38.31701 | 23.37388 | 38013 ft | 428 kts | 6° |
| 2026-04-26 13:09 | 38.37596 | 23.38503 | 38012 ft | 428 kts | 6° |
| 2026-04-26 13:10 | 38.42489 | 23.39429 | 38013 ft | 428 kts | 6° |
| 2026-04-26 13:10 | 38.48414 | 23.40552 | 38012 ft | 428 kts | 6° |
| 2026-04-26 13:11 | 38.54298 | 23.41670 | 38007 ft | 427 kts | 6° |
| 2026-04-26 13:11 | 38.60140 | 23.42781 | 38006 ft | 427 kts | 6° |
| 2026-04-26 13:12 | 38.66001 | 23.43898 | 38007 ft | 425 kts | 6° |
| 2026-04-26 13:12 | 38.71858 | 23.45015 | 38005 ft | 426 kts | 6° |
| 2026-04-26 13:13 | 38.77717 | 23.46134 | 38013 ft | 426 kts | 6° |
| 2026-04-26 13:13 | 38.83579 | 23.47256 | 38012 ft | 426 kts | 6° |
| 2026-04-26 13:14 | 38.89436 | 23.48380 | 38006 ft | 426 kts | 6° |
| 2026-04-26 13:14 | 38.95288 | 23.49505 | 38000 ft | 426 kts | 6° |
| 2026-04-26 13:15 | 39.01151 | 23.50633 | 37994 ft | 426 kts | 6° |
| 2026-04-26 13:15 | 39.07008 | 23.51761 | 37989 ft | 426 kts | 6° |
| 2026-04-26 13:16 | 39.12867 | 23.52893 | 37985 ft | 426 kts | 6° |
| 2026-04-26 13:16 | 39.18696 | 23.54021 | 37987 ft | 426 kts | 6° |
| 2026-04-26 13:17 | 39.27541 | 23.55734 | 37992 ft | 427 kts | 6° |
| 2026-04-26 13:18 | 39.36230 | 23.58200 | 37999 ft | 429 kts | 10° |
| 2026-04-26 13:19 | 39.44954 | 23.60864 | 38020 ft | 430 kts | 10° |
| 2026-04-26 13:19 | 39.50780 | 23.62656 | 38029 ft | 430 kts | 10° |
| 2026-04-26 13:20 | 39.56610 | 23.64455 | 38018 ft | 431 kts | 10° |
| 2026-04-26 13:20 | 39.62448 | 23.66259 | 38020 ft | 432 kts | 10° |
| 2026-04-26 13:21 | 39.68297 | 23.68069 | 38024 ft | 432 kts | 10° |
| 2026-04-26 13:21 | 39.74147 | 23.69884 | 38017 ft | 433 kts | 10° |
| 2026-04-26 13:22 | 39.80008 | 23.71705 | 38019 ft | 433 kts | 10° |
| 2026-04-26 13:22 | 39.85868 | 23.73529 | 38018 ft | 433 kts | 10° |
| 2026-04-26 13:23 | 39.91731 | 23.75357 | 38013 ft | 433 kts | 10° |
| 2026-04-26 13:23 | 39.97565 | 23.77181 | 38011 ft | 430 kts | 10° |
| 2026-04-26 13:24 | 40.03400 | 23.79005 | 38007 ft | 431 kts | 10° |
| 2026-04-26 13:24 | 40.09233 | 23.80833 | 38008 ft | 431 kts | 9° |
| 2026-04-26 13:25 | 40.15083 | 23.82666 | 38006 ft | 433 kts | 9° |
| 2026-04-26 13:25 | 40.20932 | 23.84509 | 37998 ft | 432 kts | 9° |
| 2026-04-26 13:26 | 40.26767 | 23.86349 | 37990 ft | 431 kts | 9° |
| 2026-04-26 13:26 | 40.32593 | 23.88188 | 37984 ft | 431 kts | 9° |
| 2026-04-26 13:27 | 40.38375 | 23.90016 | 37978 ft | 430 kts | 9° |
| 2026-04-26 13:27 | 40.44197 | 23.91860 | 37976 ft | 430 kts | 9° |
| 2026-04-26 13:28 | 40.50015 | 23.93707 | 37971 ft | 430 kts | 9° |
| 2026-04-26 13:28 | 40.55852 | 23.95449 | 37969 ft | 428 kts | 5° |
| 2026-04-26 13:29 | 40.61747 | 23.95893 | 37966 ft | 423 kts | 353° |
| 2026-04-26 13:29 | 40.67544 | 23.94884 | 37986 ft | 420 kts | 346° |
| 2026-04-26 13:30 | 40.73292 | 23.93531 | 37977 ft | 420 kts | 346° |
| 2026-04-26 13:30 | 40.79052 | 23.92175 | 37989 ft | 421 kts | 346° |
| 2026-04-26 13:31 | 40.84824 | 23.90801 | 37989 ft | 422 kts | 346° |
| 2026-04-26 13:31 | 40.90605 | 23.89421 | 37986 ft | 423 kts | 346° |
| 2026-04-26 13:32 | 40.96390 | 23.88036 | 37977 ft | 421 kts | 346° |
| 2026-04-26 13:32 | 41.02156 | 23.86654 | 37977 ft | 421 kts | 346° |
| 2026-04-26 13:33 | 41.07923 | 23.85268 | 37978 ft | 421 kts | 346° |
| 2026-04-26 13:33 | 41.13684 | 23.83881 | 37973 ft | 421 kts | 346° |
| 2026-04-26 13:34 | 41.19454 | 23.82491 | 37980 ft | 421 kts | 346° |
| 2026-04-26 13:34 | 41.25166 | 23.81113 | 37954 ft | 419 kts | 346° |
| 2026-04-26 13:35 | 41.30900 | 23.79727 | 37974 ft | 419 kts | 345° |
| 2026-04-26 13:35 | 41.36640 | 23.78335 | 37972 ft | 419 kts | 345° |
| 2026-04-26 13:36 | 41.42371 | 23.76967 | 37970 ft | 419 kts | 346° |
| 2026-04-26 13:36 | 41.48145 | 23.75783 | 37974 ft | 420 kts | 347° |
| 2026-04-26 13:37 | 41.53936 | 23.74608 | 37990 ft | 421 kts | 347° |
| 2026-04-26 13:37 | 41.59725 | 23.73407 | 37998 ft | 421 kts | 347° |
| 2026-04-26 13:38 | 41.65505 | 23.72200 | 37992 ft | 419 kts | 347° |
| 2026-04-26 13:38 | 41.71263 | 23.70992 | 37998 ft | 419 kts | 347° |
| 2026-04-26 13:39 | 41.77050 | 23.69781 | 37989 ft | 421 kts | 347° |
| 2026-04-26 13:39 | 41.82833 | 23.68566 | 37994 ft | 420 kts | 347° |
| 2026-04-26 13:40 | 41.88619 | 23.67346 | 38007 ft | 421 kts | 347° |
| 2026-04-26 13:40 | 41.94403 | 23.66126 | 38005 ft | 421 kts | 347° |
| 2026-04-26 13:41 | 42.00190 | 23.64902 | 38012 ft | 422 kts | 347° |
| 2026-04-26 13:41 | 42.05984 | 23.63677 | 38010 ft | 422 kts | 347° |
| 2026-04-26 13:42 | 42.11786 | 23.62443 | 38037 ft | 422 kts | 347° |
| 2026-04-26 13:42 | 42.17553 | 23.61219 | 38022 ft | 418 kts | 347° |
| 2026-04-26 13:43 | 42.23340 | 23.59986 | 38019 ft | 421 kts | 347° |
| 2026-04-26 13:43 | 42.29127 | 23.58756 | 38018 ft | 421 kts | 347° |
| 2026-04-26 13:44 | 42.34921 | 23.57517 | 38018 ft | 421 kts | 347° |
| 2026-04-26 13:44 | 42.40708 | 23.56278 | 38015 ft | 421 kts | 347° |
| 2026-04-26 13:45 | 42.46463 | 23.55044 | 38015 ft | 421 kts | 347° |
| 2026-04-26 13:45 | 42.52248 | 23.53801 | 38020 ft | 421 kts | 347° |
| 2026-04-26 13:46 | 42.58038 | 23.52558 | 38021 ft | 421 kts | 347° |
| 2026-04-26 13:46 | 42.63837 | 23.51306 | 38016 ft | 422 kts | 347° |
| 2026-04-26 13:47 | 42.69631 | 23.50053 | 38020 ft | 422 kts | 347° |
| 2026-04-26 13:47 | 42.75429 | 23.48798 | 38015 ft | 421 kts | 348° |
| 2026-04-26 13:48 | 42.81205 | 23.47546 | 38015 ft | 420 kts | 348° |
| 2026-04-26 13:48 | 42.86977 | 23.46291 | 38017 ft | 420 kts | 348° |
| 2026-04-26 13:49 | 42.92753 | 23.45034 | 38021 ft | 420 kts | 348° |
| 2026-04-26 13:49 | 42.98537 | 23.43774 | 38015 ft | 421 kts | 348° |
| 2026-04-26 13:50 | 43.04326 | 23.42508 | 38017 ft | 422 kts | 348° |
| 2026-04-26 13:50 | 43.10129 | 23.41237 | 38021 ft | 423 kts | 348° |
| 2026-04-26 13:51 | 43.15938 | 23.39962 | 38030 ft | 423 kts | 348° |
| 2026-04-26 13:51 | 43.21729 | 23.38691 | 38013 ft | 420 kts | 348° |
| 2026-04-26 13:52 | 43.27517 | 23.37416 | 38007 ft | 422 kts | 348° |
| 2026-04-26 13:52 | 43.33309 | 23.36138 | 38017 ft | 421 kts | 348° |
| 2026-04-26 13:53 | 43.39118 | 23.34854 | 38014 ft | 424 kts | 348° |
| 2026-04-26 13:53 | 43.44941 | 23.33565 | 38007 ft | 423 kts | 348° |
| 2026-04-26 13:54 | 43.50753 | 23.32276 | 37983 ft | 422 kts | 348° |
| 2026-04-26 13:54 | 43.56546 | 23.30987 | 37990 ft | 421 kts | 348° |
| 2026-04-26 13:55 | 43.64238 | 23.29274 | 37992 ft | 420 kts | 348° |
| 2026-04-26 13:56 | 43.73820 | 23.27133 | 37978 ft | 419 kts | 348° |
| 2026-04-26 13:56 | 43.79571 | 23.25845 | 37987 ft | 419 kts | 348° |
| 2026-04-26 13:57 | 43.85271 | 23.24252 | 37974 ft | 417 kts | 342° |
| 2026-04-26 13:57 | 43.90844 | 23.22063 | 37981 ft | 416 kts | 342° |
| 2026-04-26 13:58 | 43.96426 | 23.19915 | 37984 ft | 416 kts | 342° |
| 2026-04-26 13:58 | 44.01068 | 23.18118 | 37981 ft | 416 kts | 342° |
| 2026-04-26 13:59 | 44.06648 | 23.15946 | 37969 ft | 416 kts | 342° |
| 2026-04-26 13:59 | 44.12261 | 23.13754 | 37982 ft | 420 kts | 342° |
| 2026-04-26 14:00 | 44.23480 | 23.09364 | 37980 ft | 421 kts | 342° |
| 2026-04-26 14:01 | 44.29093 | 23.07162 | 37978 ft | 416 kts | 341° |
| 2026-04-26 14:01 | 44.34682 | 23.04961 | 37975 ft | 420 kts | 342° |
| 2026-04-26 14:02 | 44.40315 | 23.02738 | 37978 ft | 421 kts | 342° |
| 2026-04-26 14:02 | 44.45964 | 23.00508 | 37978 ft | 423 kts | 342° |
| 2026-04-26 14:03 | 44.51650 | 22.98258 | 37974 ft | 425 kts | 341° |
| 2026-04-26 14:03 | 44.57301 | 22.96018 | 37974 ft | 421 kts | 341° |
| 2026-04-26 14:04 | 44.62951 | 22.93770 | 37971 ft | 423 kts | 342° |
| 2026-04-26 14:04 | 44.68608 | 22.91518 | 37978 ft | 421 kts | 341° |
| 2026-04-26 14:05 | 44.74190 | 22.89291 | 37972 ft | 421 kts | 341° |
| 2026-04-26 14:05 | 44.79846 | 22.87028 | 37972 ft | 422 kts | 342° |
| 2026-04-26 14:06 | 44.85469 | 22.84776 | 37978 ft | 418 kts | 342° |
| 2026-04-26 14:06 | 44.91056 | 22.82532 | 37977 ft | 418 kts | 342° |
| 2026-04-26 14:07 | 44.96565 | 22.79930 | 37971 ft | 417 kts | 336° |
| 2026-04-26 14:07 | 45.01962 | 22.76932 | 37971 ft | 417 kts | 336° |
| 2026-04-26 14:08 | 45.07281 | 22.73985 | 38008 ft | 404 kts | 336° |
| 2026-04-26 14:08 | 45.12470 | 22.71103 | 37986 ft | 401 kts | 336° |
| 2026-04-26 14:09 | 45.17677 | 22.68206 | 37999 ft | 402 kts | 336° |
| 2026-04-26 14:09 | 45.22879 | 22.65305 | 37999 ft | 402 kts | 336° |
| 2026-04-26 14:10 | 45.28086 | 22.62395 | 38005 ft | 402 kts | 336° |
| 2026-04-26 14:10 | 45.33306 | 22.59473 | 37999 ft | 405 kts | 336° |
| 2026-04-26 14:11 | 45.41238 | 22.55016 | 38019 ft | 410 kts | 336° |
| 2026-04-26 14:11 | 45.46529 | 22.52040 | 38027 ft | 409 kts | 336° |
| 2026-04-26 14:12 | 45.51829 | 22.49051 | 38031 ft | 410 kts | 336° |
| 2026-04-26 14:12 | 45.57119 | 22.46063 | 38030 ft | 407 kts | 336° |
| 2026-04-26 14:13 | 45.64988 | 22.41603 | 38017 ft | 408 kts | 336° |
| 2026-04-26 14:14 | 45.70268 | 22.38603 | 38022 ft | 409 kts | 336° |
| 2026-04-26 14:14 | 45.75559 | 22.35593 | 38034 ft | 410 kts | 336° |
| 2026-04-26 14:15 | 45.80868 | 22.32566 | 38050 ft | 411 kts | 335° |
| 2026-04-26 14:15 | 45.86175 | 22.29533 | 38036 ft | 409 kts | 335° |
| 2026-04-26 14:16 | 45.91463 | 22.26504 | 38045 ft | 410 kts | 335° |
| 2026-04-26 14:16 | 45.96758 | 22.23465 | 38046 ft | 410 kts | 335° |
| 2026-04-26 14:17 | 46.02047 | 22.20424 | 38054 ft | 409 kts | 335° |
| 2026-04-26 14:17 | 46.07348 | 22.17374 | 38057 ft | 411 kts | 334° |
| 2026-04-26 14:18 | 46.12667 | 22.14303 | 38075 ft | 412 kts | 334° |
| 2026-04-26 14:18 | 46.17978 | 22.11229 | 38063 ft | 410 kts | 334° |
| 2026-04-26 14:19 | 46.23273 | 22.08159 | 38062 ft | 410 kts | 334° |
| 2026-04-26 14:19 | 46.28576 | 22.05080 | 38068 ft | 410 kts | 334° |
| 2026-04-26 14:20 | 46.33864 | 22.02001 | 38075 ft | 410 kts | 334° |
| 2026-04-26 14:20 | 46.39155 | 21.98911 | 38082 ft | 410 kts | 334° |
| 2026-04-26 14:21 | 46.44420 | 21.95833 | 38083 ft | 411 kts | 334° |
| 2026-04-26 14:21 | 46.49716 | 21.92730 | 38093 ft | 411 kts | 334° |
| 2026-04-26 14:22 | 46.54995 | 21.89632 | 38068 ft | 407 kts | 334° |
| 2026-04-26 14:22 | 46.60269 | 21.86526 | 38089 ft | 411 kts | 334° |
| 2026-04-26 14:23 | 46.65554 | 21.83410 | 38094 ft | 409 kts | 334° |
| 2026-04-26 14:23 | 46.70837 | 21.80288 | 38095 ft | 410 kts | 334° |
| 2026-04-26 14:24 | 46.76111 | 21.77165 | 38098 ft | 410 kts | 334° |
| 2026-04-26 14:24 | 46.81387 | 21.74034 | 38102 ft | 409 kts | 334° |
| 2026-04-26 14:25 | 46.86667 | 21.70894 | 38085 ft | 410 kts | 334° |
| 2026-04-26 14:25 | 46.91981 | 21.67724 | 38101 ft | 415 kts | 334° |
| 2026-04-26 14:26 | 46.97313 | 21.64542 | 38102 ft | 413 kts | 334° |
| 2026-04-26 14:26 | 47.02627 | 21.61362 | 38101 ft | 408 kts | 334° |
| 2026-04-26 14:27 | 47.07849 | 21.58230 | 38103 ft | 407 kts | 334° |
| 2026-04-26 14:27 | 47.13099 | 21.55071 | 38109 ft | 408 kts | 334° |
| 2026-04-26 14:28 | 47.18348 | 21.51909 | 38112 ft | 408 kts | 334° |
| 2026-04-26 14:28 | 47.23604 | 21.48736 | 38104 ft | 409 kts | 334° |
| 2026-04-26 14:29 | 47.28835 | 21.45571 | 38111 ft | 401 kts | 334° |
| 2026-04-26 14:29 | 47.33949 | 21.42470 | 38112 ft | 402 kts | 334° |
| 2026-04-26 14:30 | 47.39126 | 21.39324 | 38112 ft | 402 kts | 334° |
| 2026-04-26 14:30 | 47.44293 | 21.36178 | 38117 ft | 402 kts | 334° |
| 2026-04-26 14:31 | 47.49460 | 21.33025 | 38115 ft | 402 kts | 334° |
| 2026-04-26 14:31 | 47.54593 | 21.29889 | 38117 ft | 392 kts | 334° |
| 2026-04-26 14:32 | 47.59629 | 21.26803 | 38114 ft | 394 kts | 334° |
| 2026-04-26 14:32 | 47.64698 | 21.23688 | 38121 ft | 394 kts | 334° |
| 2026-04-26 14:33 | 47.69759 | 21.20574 | 38119 ft | 394 kts | 334° |
| 2026-04-26 14:33 | 47.74823 | 21.17452 | 38123 ft | 394 kts | 334° |
| 2026-04-26 14:34 | 47.79874 | 21.14333 | 38121 ft | 391 kts | 333° |
| 2026-04-26 14:34 | 47.84897 | 21.11221 | 38127 ft | 392 kts | 333° |
| 2026-04-26 14:35 | 47.89929 | 21.08098 | 38114 ft | 392 kts | 333° |
| 2026-04-26 14:35 | 47.94961 | 21.04969 | 38119 ft | 392 kts | 333° |
| 2026-04-26 14:36 | 47.99987 | 21.01837 | 38112 ft | 392 kts | 333° |
| 2026-04-26 14:36 | 48.05014 | 20.98699 | 38136 ft | 392 kts | 333° |
| 2026-04-26 14:37 | 48.10047 | 20.95549 | 38134 ft | 392 kts | 333° |
| 2026-04-26 14:37 | 48.15037 | 20.92419 | 38111 ft | 392 kts | 333° |
| 2026-04-26 14:38 | 48.20059 | 20.89263 | 38105 ft | 392 kts | 333° |
| 2026-04-26 14:38 | 48.25083 | 20.86099 | 38102 ft | 392 kts | 333° |
| 2026-04-26 14:39 | 48.30106 | 20.82931 | 38111 ft | 388 kts | 333° |
| 2026-04-26 14:39 | 48.35079 | 20.79785 | 38119 ft | 389 kts | 333° |
| 2026-04-26 14:40 | 48.40065 | 20.76623 | 38118 ft | 389 kts | 333° |
| 2026-04-26 14:40 | 48.45048 | 20.73458 | 38116 ft | 389 kts | 333° |
| 2026-04-26 14:41 | 48.50044 | 20.70276 | 38103 ft | 392 kts | 333° |
| 2026-04-26 14:41 | 48.55083 | 20.67062 | 38115 ft | 391 kts | 333° |
| 2026-04-26 14:42 | 48.60029 | 20.63905 | 38115 ft | 385 kts | 333° |
| 2026-04-26 14:42 | 48.64990 | 20.60723 | 38122 ft | 388 kts | 333° |
| 2026-04-26 14:43 | 48.69948 | 20.57540 | 38123 ft | 387 kts | 333° |
| 2026-04-26 14:43 | 48.74907 | 20.54349 | 38119 ft | 387 kts | 333° |
| 2026-04-26 14:44 | 48.79868 | 20.51151 | 38157 ft | 388 kts | 333° |
| 2026-04-26 14:44 | 48.84796 | 20.47968 | 38138 ft | 388 kts | 332° |
| 2026-04-26 14:45 | 48.89759 | 20.44753 | 38143 ft | 388 kts | 332° |
| 2026-04-26 14:45 | 48.94717 | 20.41535 | 38148 ft | 387 kts | 332° |
| 2026-04-26 14:46 | 48.99673 | 20.38311 | 38154 ft | 387 kts | 332° |
| 2026-04-26 14:46 | 49.04633 | 20.35078 | 38158 ft | 388 kts | 332° |
| 2026-04-26 14:47 | 49.09595 | 20.31838 | 38165 ft | 388 kts | 332° |
| 2026-04-26 14:47 | 49.14560 | 20.28589 | 38147 ft | 389 kts | 332° |
| 2026-04-26 14:48 | 49.19555 | 20.25310 | 38155 ft | 391 kts | 332° |
| 2026-04-26 14:48 | 49.23709 | 20.22587 | 38153 ft | 390 kts | 332° |
| 2026-04-26 14:49 | 49.28699 | 20.19306 | 38156 ft | 391 kts | 332° |
| 2026-04-26 14:49 | 49.33542 | 20.15620 | 38154 ft | 387 kts | 326° |
| 2026-04-26 14:50 | 49.38214 | 20.11488 | 38169 ft | 388 kts | 327° |
| 2026-04-26 14:50 | 49.42905 | 20.07401 | 38170 ft | 388 kts | 327° |
| 2026-04-26 14:51 | 49.47588 | 20.03290 | 38169 ft | 388 kts | 327° |
| 2026-04-26 14:51 | 49.52268 | 19.99161 | 38171 ft | 388 kts | 326° |
| 2026-04-26 14:52 | 49.56953 | 19.95017 | 38175 ft | 388 kts | 326° |
| 2026-04-26 14:52 | 49.61639 | 19.90865 | 38189 ft | 388 kts | 326° |
| 2026-04-26 14:53 | 49.66297 | 19.86728 | 38185 ft | 386 kts | 326° |
| 2026-04-26 14:53 | 49.70953 | 19.82581 | 38195 ft | 386 kts | 326° |
| 2026-04-26 14:54 | 49.75612 | 19.78423 | 38170 ft | 387 kts | 326° |
| 2026-04-26 14:54 | 49.80306 | 19.74222 | 38196 ft | 392 kts | 326° |
| 2026-04-26 14:55 | 49.85017 | 19.70001 | 38201 ft | 390 kts | 326° |
| 2026-04-26 14:55 | 49.89717 | 19.65779 | 38222 ft | 389 kts | 326° |
| 2026-04-26 14:56 | 49.94361 | 19.61599 | 38211 ft | 386 kts | 326° |
| 2026-04-26 14:56 | 49.98980 | 19.57427 | 38208 ft | 387 kts | 326° |
| 2026-04-26 14:57 | 50.03632 | 19.53220 | 38206 ft | 387 kts | 326° |
| 2026-04-26 14:57 | 50.08296 | 19.48989 | 38214 ft | 390 kts | 326° |
| 2026-04-26 14:58 | 50.12974 | 19.44739 | 38211 ft | 389 kts | 326° |
| 2026-04-26 14:58 | 50.17642 | 19.40488 | 38251 ft | 387 kts | 326° |
| 2026-04-26 14:59 | 50.22262 | 19.36271 | 38220 ft | 384 kts | 326° |
| 2026-04-26 14:59 | 50.26883 | 19.32043 | 38218 ft | 385 kts | 326° |
| 2026-04-26 15:00 | 50.31506 | 19.27803 | 38217 ft | 385 kts | 326° |
| 2026-04-26 15:00 | 50.36126 | 19.23557 | 38218 ft | 387 kts | 326° |
| 2026-04-26 15:01 | 50.40791 | 19.19259 | 38213 ft | 390 kts | 326° |
| 2026-04-26 15:01 | 50.45449 | 19.14960 | 38238 ft | 388 kts | 326° |
| 2026-04-26 15:02 | 50.50080 | 19.10675 | 38215 ft | 386 kts | 326° |
| 2026-04-26 15:02 | 50.54708 | 19.06382 | 38214 ft | 387 kts | 326° |
| 2026-04-26 15:03 | 50.59339 | 19.02076 | 38214 ft | 386 kts | 326° |
| 2026-04-26 15:03 | 50.63963 | 18.97767 | 38233 ft | 386 kts | 326° |
| 2026-04-26 15:04 | 50.68588 | 18.93447 | 38220 ft | 387 kts | 326° |
| 2026-04-26 15:04 | 50.73220 | 18.89111 | 38225 ft | 387 kts | 326° |
| 2026-04-26 15:05 | 50.77853 | 18.84762 | 38249 ft | 388 kts | 326° |
| 2026-04-26 15:05 | 50.82457 | 18.80433 | 38255 ft | 388 kts | 326° |
| 2026-04-26 15:06 | 50.87092 | 18.76066 | 38246 ft | 388 kts | 326° |
| 2026-04-26 15:06 | 50.91745 | 18.71735 | 38250 ft | 388 kts | 327° |
| 2026-04-26 15:07 | 50.98852 | 18.65550 | 38247 ft | 388 kts | 328° |
| 2026-04-26 15:07 | 51.03576 | 18.61411 | 38270 ft | 387 kts | 328° |
| 2026-04-26 15:08 | 51.08243 | 18.57293 | 38234 ft | 383 kts | 327° |
| 2026-04-26 15:08 | 51.12911 | 18.53158 | 38232 ft | 384 kts | 327° |
| 2026-04-26 15:09 | 51.17576 | 18.49016 | 38234 ft | 384 kts | 327° |
| 2026-04-26 15:09 | 51.22240 | 18.44866 | 38246 ft | 384 kts | 327° |
| 2026-04-26 15:10 | 51.26114 | 18.41412 | 38239 ft | 384 kts | 327° |
| 2026-04-26 15:10 | 51.31602 | 18.36505 | 38272 ft | 389 kts | 327° |
| 2026-04-26 15:11 | 51.36254 | 18.32341 | 38248 ft | 385 kts | 327° |
| 2026-04-26 15:11 | 51.40931 | 18.28138 | 38249 ft | 386 kts | 327° |
| 2026-04-26 15:12 | 51.45609 | 18.23927 | 38231 ft | 386 kts | 327° |
| 2026-04-26 15:12 | 51.50285 | 18.19708 | 38237 ft | 386 kts | 327° |
| 2026-04-26 15:13 | 51.54962 | 18.15477 | 38245 ft | 385 kts | 327° |
| 2026-04-26 15:13 | 51.59630 | 18.11245 | 38219 ft | 385 kts | 327° |
| 2026-04-26 15:14 | 51.64297 | 18.07003 | 38246 ft | 385 kts | 327° |
| 2026-04-26 15:14 | 51.68962 | 18.02753 | 38239 ft | 385 kts | 327° |
| 2026-04-26 15:15 | 51.73618 | 17.98501 | 38240 ft | 385 kts | 327° |
| 2026-04-26 15:15 | 51.78273 | 17.94240 | 38246 ft | 385 kts | 327° |
| 2026-04-26 15:16 | 51.82928 | 17.89968 | 38238 ft | 385 kts | 327° |
| 2026-04-26 15:16 | 51.87577 | 17.85692 | 38240 ft | 385 kts | 327° |
| 2026-04-26 15:17 | 51.91444 | 17.82127 | 38225 ft | 385 kts | 327° |
| 2026-04-26 15:17 | 51.96906 | 17.77079 | 38251 ft | 387 kts | 327° |
| 2026-04-26 15:18 | 52.01572 | 17.72758 | 38250 ft | 386 kts | 327° |
| 2026-04-26 15:18 | 52.06240 | 17.68422 | 38246 ft | 386 kts | 327° |
| 2026-04-26 15:19 | 52.10902 | 17.64081 | 38249 ft | 386 kts | 327° |
| 2026-04-26 15:19 | 52.15563 | 17.59731 | 38252 ft | 386 kts | 327° |
| 2026-04-26 15:20 | 52.20226 | 17.55369 | 38256 ft | 386 kts | 327° |
| 2026-04-26 15:20 | 52.24854 | 17.51029 | 38240 ft | 386 kts | 327° |
| 2026-04-26 15:21 | 52.29514 | 17.46649 | 38239 ft | 387 kts | 327° |
| 2026-04-26 15:21 | 52.34179 | 17.42252 | 38241 ft | 387 kts | 327° |
| 2026-04-26 15:22 | 52.38844 | 17.37844 | 38250 ft | 388 kts | 326° |
| 2026-04-26 15:22 | 52.43513 | 17.33422 | 38261 ft | 388 kts | 326° |
| 2026-04-26 15:23 | 52.48191 | 17.28980 | 38274 ft | 389 kts | 327° |
| 2026-04-26 15:23 | 52.52843 | 17.24553 | 38260 ft | 386 kts | 326° |
| 2026-04-26 15:24 | 52.57494 | 17.20116 | 38268 ft | 389 kts | 326° |
| 2026-04-26 15:24 | 52.62179 | 17.15634 | 38265 ft | 389 kts | 326° |
| 2026-04-26 15:25 | 52.66061 | 17.11913 | 38268 ft | 389 kts | 326° |
| 2026-04-26 15:25 | 52.71521 | 17.06665 | 38269 ft | 389 kts | 326° |
| 2026-04-26 15:26 | 52.76198 | 17.02157 | 38273 ft | 389 kts | 326° |
| 2026-04-26 15:26 | 52.80868 | 16.97645 | 38264 ft | 387 kts | 326° |
| 2026-04-26 15:27 | 52.85512 | 16.93147 | 38271 ft | 387 kts | 326° |
| 2026-04-26 15:27 | 52.90167 | 16.88627 | 38272 ft | 389 kts | 326° |
| 2026-04-26 15:28 | 52.94826 | 16.84091 | 38268 ft | 391 kts | 326° |
| 2026-04-26 15:28 | 52.99506 | 16.79524 | 38272 ft | 390 kts | 326° |
| 2026-04-26 15:29 | 53.04183 | 16.74948 | 38274 ft | 390 kts | 326° |
| 2026-04-26 15:30 | 53.12478 | 16.66808 | 38275 ft | 388 kts | 326° |
| 2026-04-26 15:30 | 53.16344 | 16.63005 | 38275 ft | 389 kts | 326° |
| 2026-04-26 15:31 | 53.23566 | 16.56725 | 38284 ft | 392 kts | 330° |
| 2026-04-26 15:32 | 53.29291 | 16.51947 | 38289 ft | 393 kts | 329° |
| 2026-04-26 15:32 | 53.35782 | 16.46419 | 38322 ft | 393 kts | 329° |
| 2026-04-26 15:33 | 53.40646 | 16.42251 | 38290 ft | 391 kts | 329° |
| 2026-04-26 15:33 | 53.45486 | 16.38094 | 38288 ft | 391 kts | 329° |
| 2026-04-26 15:34 | 53.50329 | 16.33923 | 38291 ft | 391 kts | 329° |
| 2026-04-26 15:34 | 53.55174 | 16.29741 | 38289 ft | 391 kts | 329° |
| 2026-04-26 15:35 | 53.60014 | 16.25551 | 38266 ft | 391 kts | 329° |
| 2026-04-26 15:35 | 53.64857 | 16.21348 | 38275 ft | 392 kts | 329° |
| 2026-04-26 15:36 | 53.68895 | 16.17834 | 38293 ft | 393 kts | 329° |
| 2026-04-26 15:36 | 53.73756 | 16.13597 | 38294 ft | 394 kts | 329° |
| 2026-04-26 15:37 | 53.78621 | 16.09344 | 38309 ft | 394 kts | 329° |
| 2026-04-26 15:37 | 53.83492 | 16.05075 | 38310 ft | 394 kts | 329° |
| 2026-04-26 15:38 | 53.88361 | 16.00796 | 38309 ft | 394 kts | 329° |
| 2026-04-26 15:38 | 53.93227 | 15.96508 | 38310 ft | 394 kts | 329° |
| 2026-04-26 15:39 | 53.98088 | 15.92213 | 38307 ft | 394 kts | 329° |
| 2026-04-26 15:39 | 54.02129 | 15.88634 | 38301 ft | 394 kts | 329° |
| 2026-04-26 15:40 | 54.07808 | 15.83591 | 38302 ft | 394 kts | 329° |
| 2026-04-26 15:40 | 54.12669 | 15.79263 | 38302 ft | 394 kts | 329° |
| 2026-04-26 15:41 | 54.17524 | 15.74928 | 38303 ft | 394 kts | 329° |
| 2026-04-26 15:41 | 54.22377 | 15.70582 | 38296 ft | 394 kts | 329° |
| 2026-04-26 15:42 | 54.27233 | 15.66223 | 38311 ft | 394 kts | 329° |
| 2026-04-26 15:42 | 54.32085 | 15.61855 | 38308 ft | 394 kts | 329° |
| 2026-04-26 15:43 | 54.36927 | 15.57485 | 38299 ft | 393 kts | 329° |
| 2026-04-26 15:44 | 54.44178 | 15.50919 | 38294 ft | 392 kts | 329° |
| 2026-04-26 15:44 | 54.51383 | 15.44368 | 38283 ft | 392 kts | 329° |
| 2026-04-26 15:45 | 54.58606 | 15.37772 | 38291 ft | 392 kts | 329° |
| 2026-04-26 15:46 | 54.65815 | 15.31166 | 38282 ft | 391 kts | 329° |
| 2026-04-26 15:46 | 54.69833 | 15.27471 | 38250 ft | 391 kts | 329° |
| 2026-04-26 15:47 | 54.77905 | 15.20024 | 37608 ft | 393 kts | 329° |
| 2026-04-26 15:47 | 54.80320 | 15.17790 | 36931 ft | 395 kts | 329° |
| 2026-04-26 15:48 | 54.82750 | 15.15537 | 36191 ft | 397 kts | 329° |
| 2026-04-26 15:48 | 54.85177 | 15.13250 | 35448 ft | 397 kts | 327° |
| 2026-04-26 15:48 | 54.87460 | 15.10677 | 34723 ft | 396 kts | 322° |
| 2026-04-26 15:48 | 54.89659 | 15.07701 | 33880 ft | 396 kts | 317° |
| 2026-04-26 15:49 | 54.91641 | 15.04508 | 33137 ft | 393 kts | 313° |
| 2026-04-26 15:49 | 54.93493 | 15.01023 | 32345 ft | 391 kts | 311° |
| 2026-04-26 15:49 | 54.95319 | 14.97519 | 31555 ft | 391 kts | 311° |
| 2026-04-26 15:49 | 54.97138 | 14.94052 | 31019 ft | 385 kts | 311° |
| 2026-04-26 15:50 | 54.98928 | 14.90631 | 30445 ft | 380 kts | 311° |
| 2026-04-26 15:50 | 55.00690 | 14.87246 | 29834 ft | 374 kts | 311° |
| 2026-04-26 15:50 | 55.02422 | 14.83904 | 29288 ft | 368 kts | 311° |
| 2026-04-26 15:50 | 55.04120 | 14.80616 | 28735 ft | 362 kts | 311° |
| 2026-04-26 15:51 | 55.05723 | 14.77280 | 28194 ft | 356 kts | 307° |
| 2026-04-26 15:51 | 55.07108 | 14.73727 | 27663 ft | 352 kts | 302° |
| 2026-04-26 15:51 | 55.08279 | 14.70012 | 27149 ft | 348 kts | 298° |
| 2026-04-26 15:51 | 55.09366 | 14.66271 | 26625 ft | 343 kts | 299° |
| 2026-04-26 15:52 | 55.10453 | 14.62591 | 26114 ft | 339 kts | 299° |
| 2026-04-26 15:52 | 55.11527 | 14.58953 | 25608 ft | 335 kts | 299° |
| 2026-04-26 15:52 | 55.12588 | 14.55349 | 25102 ft | 332 kts | 299° |
| 2026-04-26 15:52 | 55.13283 | 14.52979 | 24775 ft | 330 kts | 299° |
| 2026-04-26 15:53 | 55.14672 | 14.48230 | 24103 ft | 326 kts | 299° |
| 2026-04-26 15:53 | 55.15703 | 14.44695 | 23553 ft | 324 kts | 299° |
| 2026-04-26 15:53 | 55.16717 | 14.41211 | 23043 ft | 319 kts | 299° |
| 2026-04-26 15:53 | 55.17745 | 14.37685 | 22564 ft | 340 kts | 299° |
| 2026-04-26 15:54 | 55.18854 | 14.33877 | 22004 ft | 360 kts | 298° |
| 2026-04-26 15:54 | 55.20000 | 14.29926 | 21442 ft | 366 kts | 298° |
| 2026-04-26 15:54 | 55.21151 | 14.25938 | 20875 ft | 366 kts | 298° |
| 2026-04-26 15:54 | 55.22276 | 14.22035 | 20301 ft | 362 kts | 298° |
| 2026-04-26 15:55 | 55.23390 | 14.18161 | 19751 ft | 349 kts | 298° |
| 2026-04-26 15:55 | 55.24458 | 14.14437 | 19215 ft | 337 kts | 299° |
| 2026-04-26 15:55 | 55.25507 | 14.10785 | 18644 ft | 334 kts | 299° |
| 2026-04-26 15:55 | 55.26543 | 14.07177 | 18117 ft | 329 kts | 299° |
| 2026-04-26 15:56 | 55.27563 | 14.03619 | 17591 ft | 324 kts | 299° |
| 2026-04-26 15:56 | 55.28568 | 14.00110 | 17076 ft | 320 kts | 299° |
| 2026-04-26 15:56 | 55.29558 | 13.96649 | 16573 ft | 316 kts | 299° |
| 2026-04-26 15:56 | 55.30535 | 13.93225 | 16059 ft | 312 kts | 299° |
| 2026-04-26 15:57 | 55.31503 | 13.89839 | 15567 ft | 309 kts | 298° |
| 2026-04-26 15:57 | 55.32461 | 13.86478 | 15079 ft | 306 kts | 298° |
| 2026-04-26 15:57 | 55.33408 | 13.83143 | 14586 ft | 304 kts | 298° |
| 2026-04-26 15:57 | 55.34031 | 13.80946 | 14277 ft | 303 kts | 298° |
| 2026-04-26 15:58 | 55.35282 | 13.76535 | 13605 ft | 300 kts | 298° |
| 2026-04-26 15:58 | 55.36204 | 13.73273 | 13133 ft | 296 kts | 298° |
| 2026-04-26 15:58 | 55.37116 | 13.70046 | 12673 ft | 293 kts | 299° |
| 2026-04-26 15:58 | 55.38018 | 13.66848 | 12218 ft | 291 kts | 299° |
| 2026-04-26 15:59 | 55.38913 | 13.63672 | 11751 ft | 288 kts | 299° |
| 2026-04-26 15:59 | 55.39799 | 13.60526 | 11312 ft | 286 kts | 299° |
| 2026-04-26 15:59 | 55.40679 | 13.57392 | 10872 ft | 290 kts | 298° |
| 2026-04-26 15:59 | 55.41474 | 13.53917 | 10538 ft | 315 kts | 290° |
| 2026-04-26 16:00 | 55.42087 | 13.50271 | 10455 ft | 305 kts | 290° |
| 2026-04-26 16:00 | 55.42684 | 13.46778 | 10319 ft | 289 kts | 290° |
| 2026-04-26 16:00 | 55.43250 | 13.43497 | 10156 ft | 272 kts | 290° |
| 2026-04-26 16:00 | 55.43795 | 13.40354 | 9560 ft | 267 kts | 290° |
| 2026-04-26 16:01 | 55.44333 | 13.37266 | 9125 ft | 258 kts | 290° |
| 2026-04-26 16:01 | 55.44844 | 13.34304 | 8780 ft | 248 kts | 290° |
| 2026-04-26 16:01 | 55.45344 | 13.31410 | 8427 ft | 246 kts | 290° |
| 2026-04-26 16:01 | 55.46063 | 13.28746 | 8035 ft | 243 kts | 312° |
| 2026-04-26 16:02 | 55.47467 | 13.26914 | 7907 ft | 257 kts | 329° |
| 2026-04-26 16:02 | 55.49017 | 13.25419 | 7768 ft | 251 kts | 330° |
| 2026-04-26 16:02 | 55.50539 | 13.23982 | 7647 ft | 252 kts | 330° |
| 2026-04-26 16:02 | 55.51584 | 13.22995 | 7561 ft | 252 kts | 330° |
| 2026-04-26 16:03 | 55.53630 | 13.21051 | 7392 ft | 252 kts | 330° |
| 2026-04-26 16:03 | 55.55172 | 13.19576 | 7128 ft | 253 kts | 329° |
| 2026-04-26 16:03 | 55.56720 | 13.18090 | 6749 ft | 253 kts | 329° |
| 2026-04-26 16:03 | 55.58264 | 13.16604 | 6370 ft | 252 kts | 329° |
| 2026-04-26 16:04 | 55.59792 | 13.15132 | 6024 ft | 249 kts | 329° |
| 2026-04-26 16:04 | 55.61307 | 13.13671 | 5656 ft | 247 kts | 329° |
| 2026-04-26 16:04 | 55.62691 | 13.11964 | 5450 ft | 237 kts | 320° |
| 2026-04-26 16:04 | 55.63969 | 13.10241 | 5349 ft | 225 kts | 321° |
| 2026-04-26 16:05 | 55.65192 | 13.08610 | 5222 ft | 216 kts | 321° |
| 2026-04-26 16:05 | 55.66377 | 13.07026 | 5034 ft | 210 kts | 320° |
| 2026-04-26 16:05 | 55.67569 | 13.05410 | 4917 ft | 233 kts | 318° |
| 2026-04-26 16:05 | 55.68543 | 13.03080 | 4792 ft | 239 kts | 291° |
| 2026-04-26 16:06 | 55.68705 | 13.00156 | 4663 ft | 245 kts | 262° |
| 2026-04-26 16:06 | 55.67992 | 12.97403 | 4523 ft | 251 kts | 233° |
| 2026-04-26 16:06 | 55.66677 | 12.95336 | 4397 ft | 255 kts | 220° |
| 2026-04-26 16:06 | 55.65232 | 12.93504 | 4268 ft | 256 kts | 219° |
| 2026-04-26 16:07 | 55.63824 | 12.91602 | 4136 ft | 254 kts | 223° |
| 2026-04-26 16:07 | 55.62476 | 12.89580 | 4000 ft | 254 kts | 225° |
| 2026-04-26 16:07 | 55.61173 | 12.87463 | 3872 ft | 254 kts | 226° |
| 2026-04-26 16:07 | 55.59896 | 12.85312 | 3725 ft | 253 kts | 226° |
| 2026-04-26 16:08 | 55.58629 | 12.83150 | 3607 ft | 253 kts | 226° |
| 2026-04-26 16:08 | 55.57776 | 12.81690 | 3518 ft | 252 kts | 226° |
| 2026-04-26 16:08 | 55.56103 | 12.78834 | 3340 ft | 252 kts | 226° |
| 2026-04-26 16:08 | 55.54842 | 12.76686 | 3223 ft | 252 kts | 226° |
| 2026-04-26 16:09 | 55.53581 | 12.74542 | 3062 ft | 251 kts | 226° |
| 2026-04-26 16:09 | 55.52320 | 12.72403 | 2933 ft | 251 kts | 226° |
| 2026-04-26 16:09 | 55.51063 | 12.70271 | 2802 ft | 251 kts | 226° |
| 2026-04-26 16:09 | 55.49806 | 12.68143 | 2669 ft | 250 kts | 226° |
| 2026-04-26 16:10 | 55.48548 | 12.66013 | 2547 ft | 251 kts | 226° |
| 2026-04-26 16:10 | 55.47294 | 12.63894 | 2478 ft | 250 kts | 226° |
| 2026-04-26 16:10 | 55.46040 | 12.61775 | 2476 ft | 250 kts | 226° |
| 2026-04-26 16:10 | 55.44784 | 12.59658 | 2484 ft | 250 kts | 226° |
| 2026-04-26 16:11 | 55.43527 | 12.57541 | 2476 ft | 250 kts | 226° |
| 2026-04-26 16:11 | 55.42259 | 12.55521 | 2475 ft | 239 kts | 223° |
| 2026-04-26 16:11 | 55.41085 | 12.53584 | 2428 ft | 224 kts | 236° |
| 2026-04-26 16:11 | 55.40506 | 12.51148 | 2236 ft | 214 kts | 265° |
| 2026-04-26 16:12 | 55.40697 | 12.48611 | 2005 ft | 208 kts | 294° |
| 2026-04-26 16:12 | 55.41582 | 12.46561 | 1984 ft | 215 kts | 321° |
| 2026-04-26 16:12 | 55.44459 | 12.45755 | 1987 ft | 222 kts | 11° |
| 2026-04-26 16:13 | 55.45958 | 12.46404 | 1971 ft | 221 kts | 11° |
| 2026-04-26 16:13 | 55.47402 | 12.47026 | 1975 ft | 205 kts | 11° |
| 2026-04-26 16:13 | 55.48738 | 12.47591 | 1988 ft | 189 kts | 10° |
| 2026-04-26 16:13 | 55.49951 | 12.48101 | 1970 ft | 170 kts | 9° |
| 2026-04-26 16:14 | 55.51044 | 12.48619 | 1982 ft | 163 kts | 17° |
| 2026-04-26 16:14 | 55.52059 | 12.49551 | 1912 ft | 163 kts | 30° |
| 2026-04-26 16:14 | 55.53715 | 12.51887 | 1502 ft | 141 kts | 37° |
| 2026-04-26 16:15 | 55.54429 | 12.52977 | 1306 ft | 133 kts | 37° |
| 2026-04-26 16:15 | 55.55138 | 12.54064 | 1143 ft | 134 kts | 37° |
| 2026-04-26 16:15 | 55.55838 | 12.55146 | 956 ft | 133 kts | 38° |
| 2026-04-26 16:16 | 55.57229 | 12.57286 | 584 ft | 134 kts | 37° |
| 2026-04-26 16:16 | 55.57926 | 12.58358 | 371 ft | 133 kts | 37° |
| 2026-04-26 16:16 | 55.58616 | 12.59420 | 210 ft | 130 kts | 37° |
| 2026-04-26 16:16 | 55.59300 | 12.60473 | 45 ft | 131 kts | 37° |
| 2026-04-26 16:17 | 55.59926 | 12.61436 | 23 ft | 98 kts | 42° |
| 2026-04-26 16:17 | 55.60320 | 12.62049 | 25 ft | 64 kts | 42° |
| 2026-04-26 16:17 | 55.60635 | 12.62537 | 29 ft | 50 kts | 43° |
| 2026-04-26 16:17 | 55.60815 | 12.62773 | 25 ft | 27 kts | 26° |
| 2026-04-26 16:18 | 55.60989 | 12.62873 | 24 ft | 26 kts | 14° |
| 2026-04-26 16:18 | 55.61270 | 12.63138 | 24 ft | 21 kts | 41° |
| 2026-04-26 16:19 | 55.61507 | 12.63503 | 25 ft | 24 kts | 41° |
| 2026-04-26 16:19 | 55.61636 | 12.63705 | 24 ft | 26 kts | 41° |
| 2026-04-26 16:19 | 55.61869 | 12.64059 | 25 ft | 27 kts | 33° |
| 2026-04-26 16:20 | 55.62068 | 12.64234 | 25 ft | 25 kts | 26° |
| 2026-04-26 16:20 | 55.62288 | 12.64561 | 26 ft | 19 kts | 65° |
| 2026-04-26 16:20 | 55.62345 | 12.64778 | 26 ft | 15 kts | 65° |
| 2026-04-26 16:21 | 55.62327 | 12.64944 | 23 ft | 16 kts | 125° |
| 2026-04-26 16:21 | 55.62279 | 12.65130 | 23 ft | 17 kts | 79° |
| 2026-04-26 16:21 | 55.62378 | 12.65201 | 23 ft | 16 kts | 357° |
| 2026-04-26 16:21 | 55.62495 | 12.65185 | 27 ft | 17 kts | 356° |
| 2026-04-26 16:22 | 55.62604 | 12.65181 | 25 ft | 13 kts | 359° |
| 2026-04-26 16:22 | 55.62653 | 12.65270 | 23 ft | 11 kts | 91° |
| 2026-04-26 16:22 | 55.62647 | 12.65329 | 26 ft | 5 kts | 93° |
| 2026-04-26 16:22 | 55.62659 | 12.65352 | 23 ft | 2 kts | 33° |
| 2026-04-26 16:23 | 55.62680 | 12.65372 | 23 ft | 4 kts | 27° |
| 2026-04-26 16:23 | 55.62693 | 12.65383 | 26 ft | 0 kts | 27° |
| 2026-04-26 16:23 | 55.62701 | 12.65391 | 24 ft | 1 kts | 27° |